createdAt,value
2018-09-26T00:00:21.685Z,3.50
2018-09-26T00:02:54.583Z,3.13
2018-09-26T00:05:23.015Z,3.20
2018-09-26T00:07:51.199Z,3.40
2018-09-26T00:10:19.365Z,3.00
2018-09-26T00:12:47.533Z,3.23
2018-09-26T00:15:15.729Z,3.30
2018-09-26T00:17:43.939Z,3.20
2018-09-26T00:20:12.214Z,3.60
2018-09-26T00:22:40.425Z,3.10
2018-09-26T00:25:08.832Z,3.53
2018-09-26T00:27:36.933Z,3.30
2018-09-26T00:30:05.240Z,3.40
2018-09-26T00:32:33.430Z,3.20
2018-09-26T00:35:01.634Z,3.60
2018-09-26T00:37:29.853Z,3.63
2018-09-26T00:39:58.181Z,3.57
2018-09-26T00:42:26.451Z,2.97
2018-09-26T00:44:54.635Z,3.67
2018-09-26T00:47:22.882Z,3.57
2018-09-26T00:49:51.150Z,3.63
2018-09-26T00:52:19.430Z,3.23
2018-09-26T00:54:47.728Z,3.90
2018-09-26T00:57:16.333Z,3.50
2018-09-26T00:59:45.380Z,3.10
2018-09-26T01:02:13.616Z,3.53
2018-09-26T01:04:41.740Z,4.33
2018-09-26T01:07:10.056Z,3.50
2018-09-26T01:09:38.212Z,3.77
2018-09-26T01:12:06.445Z,3.80
2018-09-26T01:14:34.738Z,3.57
2018-09-26T01:17:03.083Z,4.07
2018-09-26T01:19:31.206Z,3.77
2018-09-26T01:21:59.461Z,3.40
2018-09-26T01:24:27.607Z,3.87
2018-09-26T01:26:55.961Z,3.93
2018-09-26T01:29:24.140Z,3.80
2018-09-26T01:31:53.045Z,3.50
2018-09-26T01:34:21.147Z,3.90
2018-09-26T01:36:49.461Z,3.10
2018-09-26T01:39:17.694Z,2.77
2018-09-26T01:41:46.015Z,3.03
2018-09-26T01:44:14.182Z,3.13
2018-09-26T01:46:42.277Z,2.90
2018-09-26T01:49:10.463Z,3.20
2018-09-26T01:51:38.743Z,3.03
2018-09-26T01:54:07.145Z,3.37
2018-09-26T01:56:35.522Z,3.13
2018-09-26T01:59:03.937Z,3.53
2018-09-26T02:01:32.319Z,3.70
2018-09-26T02:04:00.473Z,4.37
2018-09-26T02:06:28.871Z,3.80
2018-09-26T02:08:57.073Z,3.40
2018-09-26T02:11:25.285Z,3.63
2018-09-26T02:13:53.493Z,3.60
2018-09-26T02:16:21.111Z,3.23
2018-09-26T02:18:49.415Z,2.90
2018-09-26T02:21:17.747Z,2.97
2018-09-26T02:23:45.988Z,3.50
2018-09-26T02:26:14.320Z,3.00
2018-09-26T02:28:42.415Z,3.00
2018-09-26T02:31:10.643Z,3.17
2018-09-26T02:33:39.042Z,3.10
2018-09-26T02:36:14.700Z,3.30
2018-09-26T02:38:42.842Z,3.00
2018-09-26T02:41:11.144Z,3.40
2018-09-26T02:43:39.332Z,3.03
2018-09-26T02:46:07.660Z,2.90
2018-09-26T02:48:41.619Z,2.90
2018-09-26T02:51:09.836Z,3.20
2018-09-26T02:53:38.150Z,2.93
2018-09-26T02:56:06.425Z,2.93
2018-09-26T02:58:34.674Z,2.87
2018-09-26T03:01:02.970Z,3.23
2018-09-26T03:03:31.229Z,3.17
2018-09-26T03:05:59.386Z,3.10
2018-09-26T03:08:28.430Z,3.93
2018-09-26T03:10:56.648Z,2.70
2018-09-26T03:13:24.766Z,3.00
2018-09-26T03:15:52.922Z,2.63
2018-09-26T03:18:21.110Z,2.83
2018-09-26T03:20:49.882Z,3.03
2018-09-26T03:23:18.064Z,3.00
2018-09-26T03:25:46.302Z,3.00
2018-09-26T03:28:14.506Z,3.10
2018-09-26T03:30:42.816Z,2.70
2018-09-26T03:33:11.089Z,3.10
2018-09-26T03:35:39.309Z,2.60
2018-09-26T03:38:08.406Z,2.90
2018-09-26T03:40:36.612Z,2.70
2018-09-26T03:43:04.802Z,2.30
2018-09-26T03:45:32.953Z,2.50
2018-09-26T03:48:01.259Z,2.60
2018-09-26T03:50:29.530Z,2.30
2018-09-26T03:52:57.800Z,2.23
2018-09-26T03:55:25.985Z,2.73
2018-09-26T03:57:54.094Z,2.83
2018-09-26T04:00:22.268Z,2.37
2018-09-26T04:02:50.532Z,2.40
2018-09-26T04:05:18.690Z,2.73
2018-09-26T04:07:47.544Z,2.70
2018-09-26T04:10:15.229Z,2.53
2018-09-26T04:12:43.504Z,2.70
2018-09-26T04:15:11.711Z,2.77
2018-09-26T04:17:40.068Z,2.90
2018-09-26T04:20:08.717Z,2.40
2018-09-26T04:22:37.019Z,2.87
2018-09-26T04:25:05.377Z,2.37
2018-09-26T04:27:33.612Z,2.87
2018-09-26T04:30:01.905Z,2.60
2018-09-26T04:32:30.374Z,2.40
2018-09-26T04:34:58.711Z,3.10
2018-09-26T04:37:27.055Z,2.60
2018-09-26T04:39:55.293Z,2.30
2018-09-26T04:42:23.461Z,2.07
2018-09-26T04:44:51.839Z,2.50
2018-09-26T04:47:20.092Z,2.30
2018-09-26T04:49:48.605Z,3.10
2018-09-26T04:52:16.842Z,2.67
2018-09-26T04:54:45.332Z,2.90
2018-09-26T04:57:21.269Z,2.30
2018-09-26T04:59:50.576Z,2.63
2018-09-26T05:02:19.072Z,2.40
2018-09-26T05:04:48.140Z,2.77
2018-09-26T05:07:16.976Z,3.00
2018-09-26T05:09:45.157Z,2.90
2018-09-26T05:12:13.292Z,3.10
2018-09-26T05:14:41.516Z,3.23
2018-09-26T05:17:10.510Z,2.40
2018-09-26T05:19:38.774Z,3.23
2018-09-26T05:22:07.136Z,2.90
2018-09-26T05:24:35.418Z,2.53
2018-09-26T05:27:03.778Z,2.63
2018-09-26T05:29:32.076Z,2.90
2018-09-26T05:32:00.210Z,2.90
2018-09-26T05:34:28.649Z,3.00
2018-09-26T05:36:56.803Z,2.53
2018-09-26T05:39:24.977Z,3.10
2018-09-26T05:41:53.218Z,3.00
2018-09-26T05:44:22.141Z,2.90
2018-09-26T05:46:50.448Z,3.00
2018-09-26T05:49:18.714Z,2.93
2018-09-26T05:51:47.601Z,2.90
2018-09-26T05:54:15.921Z,2.83
2018-09-26T05:56:44.251Z,3.07
2018-09-26T05:59:12.385Z,2.90
2018-09-26T06:01:40.515Z,2.80
2018-09-26T06:04:08.860Z,3.40
2018-09-26T06:06:37.812Z,2.90
2018-09-26T06:09:10.761Z,2.47
2018-09-26T06:11:38.961Z,2.43
2018-09-26T06:14:07.973Z,3.10
2018-09-26T06:16:36.257Z,3.30
2018-09-26T06:19:04.605Z,3.03
2018-09-26T06:21:32.744Z,2.97
2018-09-26T06:24:00.919Z,3.60
2018-09-26T06:26:29.165Z,3.53
2018-09-26T06:28:57.495Z,2.53
2018-09-26T06:31:25.852Z,3.17
2018-09-26T06:33:54.001Z,2.60
2018-09-26T06:36:22.287Z,2.53
2018-09-26T06:38:51.025Z,2.50
2018-09-26T06:41:19.328Z,2.30
2018-09-26T06:43:47.959Z,2.80
2018-09-26T06:46:16.131Z,2.60
2018-09-26T06:48:44.387Z,2.57
2018-09-26T06:51:12.610Z,2.27
2018-09-26T06:53:40.895Z,2.50
2018-09-26T06:56:09.903Z,2.87
2018-09-26T06:58:38.227Z,2.70
2018-09-26T07:01:06.574Z,2.53
2018-09-26T07:03:34.867Z,2.50
2018-09-26T07:06:03.014Z,2.60
2018-09-26T07:08:31.233Z,2.47
2018-09-26T07:10:59.356Z,2.43
2018-09-26T07:13:27.520Z,2.33
2018-09-26T07:15:55.958Z,2.10
2018-09-26T07:18:24.168Z,2.00
2018-09-26T07:20:52.312Z,2.07
2018-09-26T07:23:20.706Z,2.20
2018-09-26T07:25:49.294Z,1.93
2018-09-26T07:28:17.455Z,2.00
2018-09-26T07:30:46.592Z,2.10
2018-09-26T07:33:14.704Z,2.03
2018-09-26T07:35:44.362Z,2.27
2018-09-26T07:38:12.616Z,2.10
2018-09-26T07:40:41.083Z,2.83
2018-09-26T07:43:09.325Z,1.90
2018-09-26T07:45:38.113Z,2.37
2018-09-26T07:48:06.711Z,2.10
2018-09-26T07:50:34.899Z,2.23
2018-09-26T07:53:03.105Z,2.03
2018-09-26T07:55:31.997Z,2.13
2018-09-26T07:58:00.145Z,2.20
2018-09-26T08:00:28.466Z,2.10
2018-09-26T08:02:56.739Z,2.10
2018-09-26T08:05:25.517Z,1.87
2018-09-26T08:07:53.825Z,1.80
2018-09-26T08:10:23.054Z,2.13
2018-09-26T08:12:52.185Z,2.23
2018-09-26T08:15:20.411Z,1.90
2018-09-26T08:17:48.730Z,2.00
2018-09-26T08:20:22.661Z,2.00
2018-09-26T08:22:51.067Z,2.00
2018-09-26T08:25:19.317Z,1.80
2018-09-26T08:27:47.465Z,2.03
2018-09-26T08:30:15.615Z,2.20
2018-09-26T08:32:44.154Z,2.20
2018-09-26T08:35:12.676Z,1.83
2018-09-26T08:37:41.570Z,1.70
2018-09-26T08:40:13.720Z,2.27
2018-09-26T08:45:19.423Z,1.53
2018-09-26T08:47:48.089Z,1.80
2018-09-26T08:50:16.793Z,1.97
2018-09-26T08:52:45.133Z,1.73
2018-09-26T08:55:13.373Z,2.40
2018-09-26T08:57:41.599Z,1.90
2018-09-26T09:00:09.843Z,1.80
2018-09-26T09:02:38.050Z,1.80
2018-09-26T09:05:06.278Z,1.93
2018-09-26T09:07:34.670Z,1.33
2018-09-26T09:10:03.304Z,1.60
2018-09-26T09:12:31.600Z,1.73
2018-09-26T09:15:00.000Z,1.70
2018-09-26T09:17:28.307Z,1.83
2018-09-26T09:19:56.478Z,1.40
2018-09-26T09:22:25.888Z,1.73
2018-09-26T09:24:54.724Z,2.00
2018-09-26T09:27:22.973Z,1.72
2018-09-26T09:29:52.272Z,1.70
2018-09-26T09:32:21.603Z,1.77
2018-09-26T09:34:49.869Z,1.47
2018-09-26T09:37:18.999Z,2.45
2018-09-26T09:39:47.836Z,1.42
2018-09-26T09:42:16.060Z,1.32
2018-09-26T09:44:44.404Z,1.50
2018-09-26T09:47:12.699Z,1.42
2018-09-26T09:49:40.988Z,1.55
2018-09-26T09:52:09.430Z,1.40
2018-09-26T09:54:37.948Z,1.60
2018-09-26T09:57:07.059Z,1.75
2018-09-26T09:59:35.199Z,2.35
2018-09-26T10:02:04.028Z,1.60
2018-09-26T10:04:32.833Z,1.50
2018-09-26T10:07:01.175Z,1.60
2018-09-26T10:09:30.022Z,1.52
2018-09-26T10:11:58.993Z,1.80
2018-09-26T10:14:27.310Z,1.72
2018-09-26T10:16:55.643Z,1.62
2018-09-26T10:19:24.065Z,1.50
2018-09-26T10:21:52.261Z,1.72
2018-09-26T10:24:20.459Z,1.70
2018-09-26T10:26:48.708Z,1.82
2018-09-26T10:29:16.902Z,1.67
2018-09-26T10:31:45.801Z,1.52
2018-09-26T10:34:13.969Z,1.60
2018-09-26T10:36:45.228Z,1.60
2018-09-26T10:39:14.439Z,1.83
2018-09-26T10:41:42.627Z,1.97
2018-09-26T10:44:10.881Z,1.87
2018-09-26T10:46:39.859Z,2.20
2018-09-26T10:49:08.252Z,2.00
2018-09-26T10:51:36.992Z,1.70
2018-09-26T10:54:05.138Z,1.73
2018-09-26T10:56:34.286Z,1.63
2018-09-26T10:59:02.420Z,1.60
2018-09-26T11:01:30.811Z,2.00
2018-09-26T11:03:59.076Z,1.60
2018-09-26T11:06:27.284Z,1.73
2018-09-26T11:08:56.534Z,1.60
2018-09-26T11:11:24.757Z,1.70
2018-09-26T11:13:54.264Z,1.90
2018-09-26T11:16:22.450Z,2.00
2018-09-26T11:18:52.144Z,2.10
2018-09-26T11:21:21.076Z,2.10
2018-09-26T11:23:49.974Z,2.03
2018-09-26T11:26:18.208Z,1.90
2018-09-26T11:28:46.297Z,1.60
2018-09-26T11:31:15.218Z,1.70
2018-09-26T11:33:43.500Z,2.27
2018-09-26T11:36:11.577Z,1.77
2018-09-26T11:38:40.939Z,1.80
2018-09-26T11:41:09.215Z,1.95
2018-09-26T11:43:38.204Z,2.22
2018-09-26T11:46:06.484Z,2.02
2018-09-26T11:48:35.843Z,2.15
2018-09-26T11:51:04.129Z,1.52
2018-09-26T11:53:33.284Z,1.60
2018-09-26T11:56:01.584Z,1.60
2018-09-26T11:58:29.696Z,1.80
2018-09-26T12:00:57.895Z,1.90
2018-09-26T12:03:26.052Z,2.00
2018-09-26T12:05:54.233Z,1.40
2018-09-26T12:08:22.603Z,1.50
2018-09-26T12:10:51.978Z,1.67
2018-09-26T12:13:20.327Z,1.30
2018-09-26T12:15:49.067Z,1.30
2018-09-26T12:18:17.425Z,1.20
2018-09-26T12:20:45.759Z,1.65
2018-09-26T12:23:14.683Z,1.57
2018-09-26T12:25:43.259Z,1.42
2018-09-26T12:28:11.428Z,1.52
2018-09-26T12:30:39.584Z,1.17
2018-09-26T12:33:07.824Z,1.20
2018-09-26T12:35:36.017Z,1.55
2018-09-26T12:38:04.400Z,1.17
2018-09-26T12:40:32.591Z,1.85
2018-09-26T12:43:00.747Z,1.50
2018-09-26T12:45:29.376Z,1.57
2018-09-26T12:47:57.567Z,1.80
2018-09-26T12:50:25.743Z,1.50
2018-09-26T12:52:53.939Z,1.30
2018-09-26T12:55:22.079Z,1.53
2018-09-26T12:57:50.348Z,1.90
2018-09-26T13:00:18.614Z,1.60
2018-09-26T13:02:46.872Z,1.30
2018-09-26T13:05:15.938Z,1.37
2018-09-26T13:07:44.145Z,1.70
2018-09-26T13:10:12.487Z,1.60
2018-09-26T13:12:40.676Z,1.70
2018-09-26T13:15:08.962Z,1.25
2018-09-26T13:17:37.284Z,1.30
2018-09-26T13:20:06.339Z,1.50
2018-09-26T13:22:35.072Z,1.43
2018-09-26T13:25:03.300Z,1.50
2018-09-26T13:27:31.534Z,1.30
2018-09-26T13:30:00.248Z,1.57
2018-09-26T13:32:28.548Z,1.43
2018-09-26T13:34:56.833Z,1.73
2018-09-26T13:37:25.105Z,2.53
2018-09-26T13:39:53.345Z,2.23
2018-09-26T13:42:21.660Z,1.83
2018-09-26T13:44:49.860Z,1.90
2018-09-26T13:47:18.132Z,1.60
2018-09-26T13:49:46.494Z,1.37
2018-09-26T13:52:14.786Z,1.60
2018-09-26T13:54:42.942Z,1.50
2018-09-26T13:57:11.411Z,1.27
2018-09-26T13:59:39.833Z,1.40
2018-09-26T14:02:08.068Z,1.43
2018-09-26T14:04:36.297Z,1.20
2018-09-26T14:07:04.635Z,1.40
2018-09-26T14:09:32.812Z,1.20
2018-09-26T14:12:01.129Z,1.10
2018-09-26T14:14:29.608Z,1.30
2018-09-26T14:16:58.093Z,1.40
2018-09-26T14:19:26.336Z,1.70
2018-09-26T14:21:54.525Z,1.60
2018-09-26T14:24:22.921Z,1.70
2018-09-26T14:26:51.103Z,1.00
2018-09-26T14:29:19.333Z,1.33
2018-09-26T14:31:47.535Z,1.13
2018-09-26T14:34:15.739Z,1.20
2018-09-26T14:36:44.093Z,1.57
2018-09-26T14:39:12.362Z,1.17
2018-09-26T14:41:40.486Z,0.80
2018-09-26T14:44:08.656Z,1.10
2018-09-26T14:46:36.751Z,1.20
2018-09-26T14:49:05.018Z,1.40
2018-09-26T14:51:33.139Z,1.53
2018-09-26T14:54:01.341Z,1.63
2018-09-26T14:56:29.550Z,1.60
2018-09-26T14:58:58.181Z,1.43
2018-09-26T15:01:26.319Z,1.63
2018-09-26T15:03:54.476Z,1.47
2018-09-26T15:06:22.858Z,1.40
2018-09-26T15:08:51.125Z,1.03
2018-09-26T15:11:19.893Z,1.20
2018-09-26T15:13:48.094Z,1.10
2018-09-26T15:16:16.415Z,1.20
2018-09-26T15:18:44.597Z,1.40
2018-09-26T15:21:13.595Z,1.23
2018-09-26T15:23:41.743Z,1.27
2018-09-26T15:26:09.957Z,1.33
2018-09-26T15:28:39.281Z,1.20
2018-09-26T15:31:08.033Z,1.50
2018-09-26T15:33:36.189Z,1.20
2018-09-26T15:36:04.528Z,1.00
2018-09-26T15:38:32.676Z,1.30
2018-09-26T15:41:00.971Z,1.07
2018-09-26T15:43:29.221Z,1.10
2018-09-26T15:45:57.407Z,1.20
2018-09-26T15:48:25.563Z,1.20
2018-09-26T15:50:53.705Z,0.90
2018-09-26T15:53:21.875Z,1.50
2018-09-26T15:55:51.163Z,1.50
2018-09-26T15:58:20.148Z,1.13
2018-09-26T16:00:49.182Z,1.40
2018-09-26T16:03:17.339Z,1.10
2018-09-26T16:05:46.280Z,1.37
2018-09-26T16:08:14.444Z,1.33
2018-09-26T16:10:42.661Z,1.30
2018-09-26T16:13:10.821Z,1.40
2018-09-26T16:15:39.091Z,1.20
2018-09-26T16:18:07.297Z,1.40
2018-09-26T16:20:35.781Z,1.60
2018-09-26T16:23:04.609Z,1.63
2018-09-26T16:25:33.135Z,1.90
2018-09-26T16:28:02.089Z,1.23
2018-09-26T16:30:30.259Z,1.30
2018-09-26T16:32:58.461Z,1.30
2018-09-26T16:35:26.707Z,1.40
2018-09-26T16:37:54.885Z,1.30
2018-09-26T16:40:23.097Z,1.20
2018-09-26T16:42:51.401Z,1.50
2018-09-26T16:45:19.693Z,1.30
2018-09-26T16:47:47.931Z,1.30
2018-09-26T16:50:16.098Z,1.20
2018-09-26T16:52:44.331Z,1.17
2018-09-26T16:55:12.604Z,1.83
2018-09-26T16:57:40.874Z,1.20
2018-09-26T17:00:09.062Z,1.17
2018-09-26T17:02:37.241Z,1.40
2018-09-26T17:05:06.435Z,1.50
2018-09-26T17:07:34.716Z,1.60
2018-09-26T17:10:02.925Z,1.10
2018-09-26T17:12:31.072Z,1.10
2018-09-26T17:14:59.268Z,1.37
2018-09-26T17:17:27.610Z,0.97
2018-09-26T17:19:55.951Z,1.30
2018-09-26T17:22:24.342Z,1.40
2018-09-26T17:24:52.542Z,1.40
2018-09-26T17:27:20.802Z,1.73
2018-09-26T17:29:49.099Z,1.30
2018-09-26T17:32:17.332Z,1.50
2018-09-26T17:34:45.807Z,1.60
2018-09-26T17:37:13.938Z,1.00
2018-09-26T17:39:42.056Z,1.40
2018-09-26T17:42:10.448Z,2.00
2018-09-26T17:44:38.570Z,1.60
2018-09-26T17:47:07.082Z,1.70
2018-09-26T17:49:35.312Z,1.80
2018-09-26T17:52:03.632Z,1.40
2018-09-26T17:54:31.823Z,1.77
2018-09-26T17:57:00.065Z,1.77
2018-09-26T17:59:28.259Z,1.60
2018-09-26T18:01:56.620Z,1.80
2018-09-26T18:04:24.960Z,1.57
2018-09-26T18:06:53.174Z,1.80
2018-09-26T18:09:22.124Z,1.70
2018-09-26T18:11:50.867Z,1.57
2018-09-26T18:14:19.026Z,1.80
2018-09-26T18:16:47.159Z,2.00
2018-09-26T18:19:15.363Z,1.60
2018-09-26T18:21:43.769Z,2.00
2018-09-26T18:24:12.119Z,1.80
2018-09-26T18:26:40.348Z,1.70
2018-09-26T18:29:08.645Z,2.00
2018-09-26T18:31:37.087Z,2.03
2018-09-26T18:34:05.401Z,1.70
2018-09-26T18:36:33.548Z,2.10
2018-09-26T18:39:01.852Z,1.70
2018-09-26T18:41:30.068Z,1.70
2018-09-26T18:43:58.231Z,2.10
2018-09-26T18:46:26.687Z,2.20
2018-09-26T18:48:54.865Z,2.10
2018-09-26T18:51:23.086Z,2.30
2018-09-26T18:53:51.311Z,1.70
2018-09-26T18:56:19.602Z,1.83
2018-09-26T18:58:47.887Z,2.00
2018-09-26T19:01:16.189Z,2.30
2018-09-26T19:03:44.366Z,2.10
2018-09-26T19:06:12.569Z,1.90
2018-09-26T19:08:40.857Z,1.60
2018-09-26T19:11:09.113Z,2.00
2018-09-26T19:13:37.532Z,2.00
2018-09-26T19:16:06.253Z,2.10
2018-09-26T19:18:34.664Z,2.07
2018-09-26T19:21:02.870Z,1.80
2018-09-26T19:23:31.091Z,1.87
2018-09-26T19:25:59.404Z,1.67
2018-09-26T19:28:27.694Z,1.70
2018-09-26T19:30:56.045Z,1.83
2018-09-26T19:33:24.477Z,2.00
2018-09-26T19:35:53.268Z,1.73
2018-09-26T19:38:21.639Z,1.37
2018-09-26T19:40:49.840Z,2.00
2018-09-26T19:43:18.176Z,1.43
2018-09-26T19:45:47.019Z,1.83
2018-09-26T19:48:15.436Z,1.70
2018-09-26T19:50:43.964Z,1.87
2018-09-26T19:53:12.246Z,2.10
2018-09-26T19:55:40.568Z,1.70
2018-09-26T19:58:08.852Z,2.00
2018-09-26T20:00:37.065Z,1.87
2018-09-26T20:03:05.383Z,1.80
2018-09-26T20:05:33.598Z,1.57
2018-09-26T20:08:01.849Z,1.80
2018-09-26T20:10:30.121Z,1.60
2018-09-26T20:12:58.453Z,1.80
2018-09-26T20:15:26.989Z,1.60
2018-09-26T20:17:55.264Z,1.93
2018-09-26T20:20:23.561Z,1.93
2018-09-26T20:22:51.830Z,2.07
2018-09-26T20:25:20.575Z,1.83
2018-09-26T20:27:48.717Z,1.60
2018-09-26T20:30:17.481Z,1.80
2018-09-26T20:32:45.755Z,1.60
2018-09-26T20:35:13.975Z,1.73
2018-09-26T20:37:43.058Z,2.07
2018-09-26T20:40:11.211Z,1.90
2018-09-26T20:42:39.437Z,2.10
2018-09-26T20:45:07.736Z,2.40
2018-09-26T20:47:35.940Z,2.20
2018-09-26T20:50:04.869Z,1.90
2018-09-26T20:52:33.065Z,1.63
2018-09-26T20:55:01.931Z,1.70
2018-09-26T20:57:30.160Z,1.77
2018-09-26T20:59:58.345Z,1.90
2018-09-26T21:02:26.778Z,1.93
2018-09-26T21:04:55.229Z,1.93
2018-09-26T21:07:23.512Z,1.83
2018-09-26T21:09:51.845Z,2.07
2018-09-26T21:12:20.014Z,1.80
2018-09-26T21:14:48.282Z,1.87
2018-09-26T21:17:17.300Z,1.87
2018-09-26T21:19:45.624Z,1.97
2018-09-26T21:22:13.914Z,2.27
2018-09-26T21:24:43.238Z,2.17
2018-09-26T21:27:11.451Z,2.40
2018-09-26T21:29:39.759Z,2.03
2018-09-26T21:32:07.957Z,1.90
2018-09-26T21:34:36.226Z,2.07
2018-09-26T21:37:04.525Z,1.90
2018-09-26T21:39:32.809Z,1.90
2018-09-26T21:42:01.145Z,1.90
2018-09-26T21:44:29.292Z,1.80
2018-09-26T21:46:57.567Z,2.10
2018-09-26T21:49:26.473Z,1.70
2018-09-26T21:51:55.100Z,1.93
2018-09-26T21:54:24.085Z,1.87
2018-09-26T21:56:52.310Z,1.93
2018-09-26T21:59:20.404Z,1.93
2018-09-26T22:01:48.662Z,2.00
2018-09-26T22:04:17.103Z,1.80
2018-09-26T22:06:45.353Z,2.00
2018-09-26T22:09:13.701Z,1.93
2018-09-26T22:11:42.232Z,2.03
2018-09-26T22:14:10.616Z,1.80
2018-09-26T22:16:38.796Z,1.80
2018-09-26T22:19:06.965Z,1.70
2018-09-26T22:21:35.242Z,2.00
2018-09-26T22:24:04.300Z,1.87
2018-09-26T22:26:33.097Z,1.97
2018-09-26T22:29:02.366Z,1.60
2018-09-26T22:31:34.175Z,1.90
2018-09-26T22:34:02.614Z,1.80
2018-09-26T22:36:30.783Z,1.60
2018-09-26T22:38:59.118Z,1.90
2018-09-26T22:41:28.053Z,1.57
2018-09-26T22:43:56.305Z,1.77
2018-09-26T22:46:24.528Z,2.20
2018-09-26T22:48:52.848Z,2.20
2018-09-26T22:51:21.072Z,1.90
2018-09-26T22:53:49.445Z,2.00
2018-09-26T22:56:17.549Z,1.70
2018-09-26T22:58:45.830Z,1.70
2018-09-26T23:01:14.025Z,1.80
2018-09-26T23:03:42.368Z,1.70
2018-09-26T23:06:11.436Z,1.50
2018-09-26T23:08:39.613Z,1.63
2018-09-26T23:11:07.929Z,2.33
2018-09-26T23:13:36.393Z,1.70
2018-09-26T23:16:04.747Z,1.50
2018-09-26T23:18:32.921Z,1.83
2018-09-26T23:21:01.208Z,1.70
2018-09-26T23:23:30.443Z,1.50
2018-09-26T23:25:58.762Z,1.70
2018-09-26T23:28:27.721Z,1.57
2018-09-26T23:30:56.407Z,1.73
2018-09-26T23:33:25.158Z,1.40
2018-09-26T23:35:53.571Z,1.50
2018-09-26T23:38:22.573Z,1.40
2018-09-26T23:40:51.975Z,1.93
2018-09-26T23:43:20.205Z,1.73
2018-09-26T23:45:49.939Z,1.50
2018-09-26T23:48:18.163Z,2.00
2018-09-26T23:50:47.639Z,1.63
2018-09-26T23:53:15.911Z,1.80
2018-09-26T23:55:44.321Z,1.20
2018-09-26T23:58:12.488Z,1.53
